Time;durP1;ratioP1;P1;durP2;ratioP2;P2;SDS_P1;SDS_P2;PMS_P1;PMS_P2;Temp;Humidity;BMP_temperature;BMP_pressure;BME280_temperature;BME280_humidity;BME280_pressure;Samples;Min_cycle;Max_cycle;Signal;HPM_P1;HPM_P2
2021/03/28 00:02:57;;;;;;;16.50;4.63;;;5.40;81.80;;;;;;5092702;28;20038;-54
2021/03/28 00:05:22;;;;;;;24.83;5.30;;;5.40;82.20;;;;;;5092080;28;20050;-53
2021/03/28 00:07:52;;;;;;;28.00;5.78;;;5.40;82.00;;;;;;5092481;28;20469;-54
2021/03/28 00:10:31;;;;;;;20.92;5.35;;;5.40;82.50;;;;;;5093580;28;20075;-54
2021/03/28 00:13:08;;;;;;;19.17;5.00;;;5.40;82.60;;;;;;5081653;28;20040;-53
2021/03/28 00:15:46;;;;;;;23.55;4.97;;;5.40;82.80;;;;;;5092142;28;20036;-54
2021/03/28 00:18:22;;;;;;;21.17;4.38;;;5.50;82.90;;;;;;5091178;28;20101;-53
2021/03/28 00:20:52;;;;;;;16.95;4.95;;;5.40;82.90;;;;;;5093383;28;20068;-53
2021/03/28 00:23:26;;;;;;;22.55;5.57;;;5.40;83.00;;;;;;5093378;28;20446;-51
2021/03/28 00:26:00;;;;;;;23.58;5.70;;;5.40;83.30;;;;;;5092176;28;20066;-54
2021/03/28 00:28:48;;;;;;;25.95;5.95;;;5.40;83.20;;;;;;5092568;28;20040;-52
2021/03/28 00:31:28;;;;;;;24.42;4.90;;;5.30;84.10;;;;;;5089742;28;20036;-54
2021/03/28 00:34:22;;;;;;;23.67;5.97;;;5.30;83.80;;;;;;5092861;28;20260;-53
2021/03/28 00:36:57;;;;;;;21.60;5.20;;;5.30;84.00;;;;;;5081908;28;20036;-51
2021/03/28 00:39:46;;;;;;;21.92;4.40;;;5.30;84.20;;;;;;5091205;28;20543;-54
2021/03/28 00:42:36;;;;;;;21.58;5.50;;;5.30;84.20;;;;;;5091096;28;20036;-54
2021/03/28 00:45:22;;;;;;;20.38;5.00;;;5.40;84.40;;;;;;5091846;28;20068;-53
2021/03/28 00:48:07;;;;;;;22.08;5.03;;;5.40;84.70;;;;;;5090605;28;20039;-53
2021/03/28 00:50:45;;;;;;;17.10;4.75;;;5.40;84.90;;;;;;5090873;28;20051;-51
2021/03/28 00:53:28;;;;;;;20.25;5.10;;;5.40;84.80;;;;;;5092425;28;20056;-49
2021/03/28 00:56:00;;;;;;;22.48;5.35;;;5.50;84.90;;;;;;5090994;28;20032;-52
2021/03/28 00:58:39;;;;;;;22.48;5.25;;;5.50;84.80;;;;;;5092268;28;20066;-51
2021/03/28 01:01:32;;;;;;;21.42;5.40;;;5.40;84.70;;;;;;5079355;28;20044;-52
2021/03/28 01:04:25;;;;;;;26.23;5.28;;;5.40;84.80;;;;;;5091919;28;20097;-52
2021/03/28 01:07:11;;;;;;;25.38;5.10;;;5.40;85.00;;;;;;5089590;28;20068;-54
2021/03/28 01:10:10;;;;;;;23.92;5.88;;;5.40;85.00;;;;;;5078607;28;20048;-53
2021/03/28 01:12:54;;;;;;;21.55;5.32;;;5.20;84.90;;;;;;5091251;28;20032;-53
2021/03/28 01:15:41;;;;;;;16.70;4.00;;;5.30;85.10;;;;;;5092082;28;20040;-53
2021/03/28 01:18:34;;;;;;;21.05;5.50;;;5.30;85.10;;;;;;5090532;28;20044;-51
2021/03/28 01:21:18;;;;;;;15.43;4.45;;;5.30;85.20;;;;;;5091311;28;20438;-53
2021/03/28 01:23:45;;;;;;;18.88;4.32;;;5.40;85.50;;;;;;5091158;28;20107;-51
2021/03/28 01:26:42;;;;;;;17.50;4.50;;;5.40;85.40;;;;;;5090564;28;20040;-53
2021/03/28 01:29:28;;;;;;;18.00;4.55;;;5.40;85.50;;;;;;5090885;28;20507;-50
2021/03/28 01:32:03;;;;;;;21.88;4.97;;;5.50;85.40;;;;;;5091834;28;20036;-52
2021/03/28 01:34:58;;;;;;;19.92;4.68;;;5.40;85.30;;;;;;5085643;28;20036;-53
2021/03/28 01:37:47;;;;;;;25.13;5.28;;;5.50;85.40;;;;;;5090674;28;20071;-53
2021/03/28 01:40:41;;;;;;;19.83;4.70;;;5.40;85.50;;;;;;5091295;28;20040;-52
2021/03/28 01:43:44;;;;;;;19.80;4.97;;;5.40;85.40;;;;;;5091298;28;20032;-51
2021/03/28 01:46:16;;;;;;;;;;;5.60;85.30;;;;;;5086644;28;20139;-55
2021/03/28 01:48:53;;;;;;;21.25;4.88;;;5.50;85.20;;;;;;5090819;28;19920;-50
2021/03/28 01:51:28;;;;;;;16.05;4.38;;;5.50;85.20;;;;;;5090832;28;20230;-53
2021/03/28 01:54:00;;;;;;;16.27;4.93;;;5.60;85.10;;;;;;5090926;28;20261;-51
2021/03/28 01:56:44;;;;;;;17.05;5.13;;;5.60;85.20;;;;;;5090594;28;20085;-53
2021/03/28 01:59:30;;;;;;;17.13;4.78;;;5.60;85.50;;;;;;5072797;28;20044;-50
2021/03/28 02:02:29;;;;;;;18.27;4.60;;;5.50;85.30;;;;;;5085077;28;20126;-54
2021/03/28 02:05:14;;;;;;;17.48;4.57;;;5.60;85.00;;;;;;5089747;28;20473;-52
2021/03/28 02:08:07;;;;;;;20.75;5.30;;;5.60;85.10;;;;;;5089295;28;20036;-54
2021/03/28 02:10:54;;;;;;;20.08;4.70;;;5.50;85.20;;;;;;5086931;28;20044;-54
2021/03/28 02:13:41;;;;;;;16.20;4.82;;;5.50;85.20;;;;;;5089884;28;20396;-54
2021/03/28 02:16:16;;;;;;;14.90;4.18;;;5.50;85.30;;;;;;5089911;28;20032;-51
2021/03/28 02:18:50;;;;;;;18.77;5.68;;;5.50;85.30;;;;;;5090979;28;20044;-54
2021/03/28 02:21:43;;;;;;;16.92;4.43;;;5.60;85.00;;;;;;5090713;28;20039;-53
2021/03/28 02:24:20;;;;;;;20.08;4.80;;;5.60;85.20;;;;;;5086259;28;20036;-54
2021/03/28 02:27:13;;;;;;;15.23;4.78;;;5.60;85.60;;;;;;5089032;28;20492;-51
2021/03/28 02:29:46;;;;;;;19.10;4.35;;;5.60;85.40;;;;;;5090391;28;20476;-54
2021/03/28 02:32:27;;;;;;;23.35;5.40;;;5.70;85.60;;;;;;5089963;28;20111;-53
2021/03/28 02:35:11;;;;;;;17.35;5.10;;;5.70;85.30;;;;;;5090728;28;20496;-54
2021/03/28 02:38:02;;;;;;;18.23;5.20;;;5.80;85.30;;;;;;5088568;28;20135;-54
2021/03/28 02:40:34;;;;;;;19.60;4.82;;;5.80;85.30;;;;;;5091059;28;20067;-54
2021/03/28 02:43:24;;;;;;;21.47;5.30;;;5.80;85.30;;;;;;5088853;28;20059;-55
2021/03/28 02:46:26;;;;;;;23.40;5.53;;;5.80;85.30;;;;;;5090296;28;20488;-54
2021/03/28 02:49:29;;;;;;;17.20;5.00;;;5.80;85.30;;;;;;5090600;28;20073;-55
2021/03/28 02:52:16;;;;;;;17.50;4.95;;;5.80;85.10;;;;;;5089341;28;20044;-54
2021/03/28 02:55:19;;;;;;;24.38;5.55;;;5.90;85.10;;;;;;5090980;28;20407;-54
2021/03/28 02:58:11;;;;;;;16.70;4.70;;;5.90;85.10;;;;;;5083137;28;20369;-53
2021/03/28 03:00:58;;;;;;;18.13;5.47;;;5.90;85.40;;;;;;5090568;28;20036;-53
2021/03/28 03:03:54;;;;;;;17.33;5.53;;;6.00;85.30;;;;;;5083693;28;20092;-53
2021/03/28 03:06:35;;;;;;;19.13;5.20;;;5.90;85.30;;;;;;5086406;28;20035;-53
2021/03/28 03:09:16;;;;;;;19.00;5.28;;;6.00;85.70;;;;;;5089046;28;20044;-53
2021/03/28 03:11:48;;;;;;;18.67;5.32;;;6.10;85.50;;;;;;5090187;28;20040;-54
2021/03/28 03:14:32;;;;;;;20.77;5.53;;;6.00;85.40;;;;;;5090017;28;20036;-52
2021/03/28 03:17:15;;;;;;;15.60;5.18;;;6.00;85.70;;;;;;5088532;28;20131;-53
2021/03/28 03:20:20;;;;;;;19.88;5.05;;;6.00;85.50;;;;;;5090353;28;20052;-56
2021/03/28 03:23:18;;;;;;;15.98;4.82;;;6.00;85.80;;;;;;5057901;28;20052;-50
2021/03/28 03:26:08;;;;;;;22.73;5.93;;;6.00;85.90;;;;;;5083932;28;20046;-51
2021/03/28 03:28:46;;;;;;;19.08;4.57;;;6.00;86.00;;;;;;5085373;28;20059;-50
2021/03/28 03:31:33;;;;;;;22.55;5.40;;;5.90;85.90;;;;;;5089268;28;20042;-50
2021/03/28 03:34:10;;;;;;;21.20;5.90;;;5.90;86.30;;;;;;5092976;28;20040;-49
2021/03/28 03:37:17;;;;;;;22.08;5.07;;;5.90;86.20;;;;;;5104601;27;20035;-52
2021/03/28 03:39:55;;;;;;;20.73;5.30;;;5.90;86.50;;;;;;5090252;28;20044;-50
2021/03/28 03:43:02;;;;;;;18.48;5.28;;;6.00;86.80;;;;;;5093146;28;20066;-50
2021/03/28 03:45:58;;;;;;;18.73;5.22;;;6.00;86.90;;;;;;5090128;28;20119;-54
2021/03/28 03:48:43;;;;;;;15.98;4.78;;;6.00;86.70;;;;;;5091723;28;20086;-50
2021/03/28 03:51:24;;;;;;;14.57;4.55;;;6.00;86.60;;;;;;5087288;28;20048;-51
2021/03/28 03:54:03;;;;;;;15.38;4.93;;;5.80;86.70;;;;;;5087671;28;20424;-54
2021/03/28 03:56:47;;;;;;;20.50;5.78;;;5.90;86.60;;;;;;5090703;28;20066;-50
2021/03/28 03:59:48;;;;;;;18.45;6.70;;;5.90;86.70;;;;;;5091867;28;20044;-55
2021/03/28 04:02:26;;;;;;;15.00;5.63;;;5.90;86.90;;;;;;5089634;28;20048;-49
2021/03/28 04:05:33;;;;;;;17.83;5.28;;;5.90;86.80;;;;;;5091422;28;20161;-52
2021/03/28 04:08:09;;;;;;;24.50;5.50;;;5.80;86.90;;;;;;5085722;28;20050;-49
2021/03/28 04:10:46;;;;;;;19.10;5.45;;;5.80;87.10;;;;;;5093207;28;20040;-51
2021/03/28 04:13:39;;;;;;;18.48;5.68;;;5.80;87.40;;;;;;5090683;28;20086;-52
2021/03/28 04:16:34;;;;;;;15.52;4.53;;;5.80;87.30;;;;;;5092181;28;20040;-53
2021/03/28 04:19:09;;;;;;;20.35;5.47;;;5.80;87.40;;;;;;5100759;28;20140;-52
2021/03/28 04:22:02;;;;;;;21.17;5.13;;;5.80;87.40;;;;;;5092627;28;20051;-52
2021/03/28 04:24:36;;;;;;;15.57;5.20;;;5.70;87.50;;;;;;5089751;28;20040;-51
2021/03/28 04:27:37;;;;;;;21.30;5.65;;;5.80;87.70;;;;;;5090596;28;20036;-53
2021/03/28 04:30:04;;;;;;;20.90;5.82;;;5.70;87.40;;;;;;5086869;28;20044;-52
2021/03/28 04:33:01;;;;;;;15.95;5.05;;;5.70;87.50;;;;;;5092245;28;20048;-53
2021/03/28 04:35:42;;;;;;;16.52;5.35;;;5.80;87.50;;;;;;5090433;28;20459;-52
2021/03/28 04:38:22;;;;;;;14.88;5.07;;;5.80;87.70;;;;;;5087344;28;20047;-51
2021/03/28 04:41:06;;;;;;;18.58;5.95;;;5.80;87.50;;;;;;5092755;28;20044;-53
2021/03/28 04:43:51;;;;;;;20.58;5.72;;;5.70;87.50;;;;;;5090682;28;20048;-54
2021/03/28 04:47:01;;;;;;;17.30;5.03;;;5.70;87.60;;;;;;5090919;28;20056;-52
2021/03/28 04:49:40;;;;;;;23.20;6.13;;;5.70;87.70;;;;;;5083042;28;20108;-51
2021/03/28 04:52:27;;;;;;;24.73;6.22;;;5.70;87.70;;;;;;5092524;28;20048;-51
2021/03/28 04:55:23;;;;;;;21.45;6.30;;;5.70;87.70;;;;;;5090866;28;20100;-53
2021/03/28 04:58:23;;;;;;;20.75;5.88;;;5.70;87.90;;;;;;5091018;28;20097;-51
2021/03/28 05:01:01;;;;;;;19.00;5.88;;;5.70;88.00;;;;;;5092004;28;20188;-50
2021/03/28 05:04:06;;;;;;;25.13;5.97;;;5.70;88.20;;;;;;5090049;28;20040;-50
2021/03/28 05:06:47;;;;;;;15.23;5.38;;;5.80;88.50;;;;;;5076098;28;20122;-51
2021/03/28 05:09:43;;;;;;;20.45;5.97;;;5.90;88.50;;;;;;5090697;28;20048;-53
2021/03/28 05:12:09;;;;;;;18.08;5.70;;;6.00;88.40;;;;;;5091665;28;20040;-51
2021/03/28 05:14:55;;;;;;;19.02;5.32;;;6.00;88.10;;;;;;5091778;28;20507;-53
2021/03/28 05:17:50;;;;;;;25.80;5.80;;;6.00;88.20;;;;;;5068645;28;20443;-50
2021/03/28 05:20:52;;;;;;;17.27;5.15;;;6.10;88.40;;;;;;5090260;28;20039;-51
2021/03/28 05:23:18;;;;;;;18.02;5.28;;;6.10;88.10;;;;;;5090343;28;20040;-52
2021/03/28 05:26:25;;;;;;;21.08;5.68;;;6.00;88.10;;;;;;5091256;28;20131;-52
2021/03/28 05:29:08;;;;;;;22.70;5.78;;;6.10;88.20;;;;;;5047544;28;20606;-51
2021/03/28 05:32:02;;;;;;;15.30;4.80;;;6.20;88.20;;;;;;5083650;28;20051;-51
2021/03/28 05:34:58;;;;;;;15.63;4.75;;;6.20;88.00;;;;;;5083463;28;20168;-51
2021/03/28 05:38:10;;;;;;;18.27;4.45;;;6.30;88.30;;;;;;5090158;28;20405;-51
2021/03/28 05:40:56;;;;;;;23.42;5.60;;;6.30;88.20;;;;;;5090896;28;20051;-50
2021/03/28 05:43:56;;;;;;;22.48;5.15;;;6.30;88.10;;;;;;5089245;28;20067;-51
2021/03/28 05:46:59;;;;;;;16.98;5.03;;;6.30;88.10;;;;;;5090338;28;20424;-53
2021/03/28 05:50:00;;;;;;;21.55;4.90;;;6.40;88.00;;;;;;5089924;28;20511;-51
2021/03/28 05:52:44;;;;;;;17.92;4.10;;;6.40;87.80;;;;;;5082668;28;20052;-54
2021/03/28 05:55:32;;;;;;;15.18;4.65;;;6.40;87.80;;;;;;5089803;28;20412;-51
2021/03/28 05:58:25;;;;;;;18.42;4.57;;;6.50;87.60;;;;;;5090200;28;20119;-51
2021/03/28 06:01:12;;;;;;;17.30;4.10;;;6.40;87.40;;;;;;5090362;28;20119;-54
2021/03/28 06:04:15;;;;;;;19.05;4.72;;;6.50;87.50;;;;;;5089447;28;20692;-50
2021/03/28 06:07:16;;;;;;;15.70;3.92;;;6.60;87.40;;;;;;5088836;28;20039;-50
2021/03/28 06:10:29;;;;;;;14.93;4.07;;;6.70;87.10;;;;;;5090014;28;20040;-50
2021/03/28 06:13:06;;;;;;;;;;;6.80;86.80;;;;;;5080142;28;20127;-53
2021/03/28 06:15:45;;;;;;;14.70;4.13;;;6.80;86.90;;;;;;5090834;28;20010;-49
2021/03/28 06:18:47;;;;;;;12.50;3.50;;;6.90;87.00;;;;;;5089364;28;20047;-53
2021/03/28 06:21:47;;;;;;;13.05;3.60;;;7.00;86.20;;;;;;5090184;28;20123;-53
2021/03/28 06:24:47;;;;;;;13.48;3.38;;;7.10;85.90;;;;;;5087899;28;20048;-49
2021/03/28 06:27:56;;;;;;;18.42;3.85;;;7.10;85.40;;;;;;5086840;28;20032;-51
2021/03/28 06:30:50;;;;;;;15.63;3.30;;;7.20;85.50;;;;;;5086288;28;20141;-51
2021/03/28 06:33:44;;;;;;;11.23;3.53;;;7.10;85.50;;;;;;5086731;28;20123;-53
2021/03/28 06:36:29;;;;;;;14.73;3.40;;;7.20;85.50;;;;;;5088751;28;20043;-53
2021/03/28 06:39:40;;;;;;;15.65;3.10;;;7.30;85.60;;;;;;5086358;28;20312;-50
2021/03/28 06:42:44;;;;;;;13.07;3.13;;;7.40;85.50;;;;;;5080366;28;20055;-54
2021/03/28 06:45:50;;;;;;;14.52;4.03;;;7.50;85.20;;;;;;5085931;28;20712;-50
2021/03/28 06:48:53;;;;;;;14.40;3.50;;;7.60;85.10;;;;;;5084868;28;20047;-52
2021/03/28 06:51:38;;;;;;;;;;;7.60;85.10;;;;;;5088265;28;20040;-53
2021/03/28 06:54:28;;;;;;;18.77;3.75;;;7.70;84.90;;;;;;5089453;28;19962;-53
2021/03/28 06:57:30;;;;;;;16.85;3.10;;;7.80;84.80;;;;;;5085907;28;20043;-51
2021/03/28 07:00:18;;;;;;;11.90;3.13;;;7.90;84.50;;;;;;5089871;28;20044;-52
2021/03/28 07:03:23;;;;;;;8.98;2.88;;;7.90;84.30;;;;;;5086200;28;20213;-49
2021/03/28 07:06:23;;;;;;;12.52;3.42;;;7.90;84.10;;;;;;5081331;28;20074;-51
2021/03/28 07:09:19;;;;;;;11.43;2.95;;;7.90;84.00;;;;;;5092862;28;20062;-51
2021/03/28 07:12:27;;;;;;;14.05;4.10;;;8.00;84.10;;;;;;5091157;28;20137;-52
2021/03/28 07:15:25;;;;;;;13.20;3.38;;;8.00;83.60;;;;;;5072551;28;20105;-49
2021/03/28 07:18:11;;;;;;;14.55;3.17;;;8.00;83.80;;;;;;5092244;28;20044;-50
2021/03/28 07:21:01;;;;;;;11.85;3.10;;;8.00;83.90;;;;;;5091291;28;20385;-49
2021/03/28 07:23:48;;;;;;;14.15;3.35;;;8.00;84.00;;;;;;5091211;28;20068;-52
2021/03/28 07:26:49;;;;;;;14.07;3.28;;;8.10;83.90;;;;;;5090695;28;20093;-51
2021/03/28 07:29:52;;;;;;;12.45;2.92;;;8.10;83.90;;;;;;5088433;28;20085;-50
2021/03/28 07:32:18;;;;;;;14.63;3.20;;;8.10;83.80;;;;;;5090590;28;20147;-49
2021/03/28 07:35:05;;;;;;;18.95;3.15;;;8.20;83.60;;;;;;5092599;28;20166;-49
2021/03/28 07:38:09;;;;;;;10.82;3.25;;;8.20;83.60;;;;;;5092320;28;20058;-49
2021/03/28 07:40:55;;;;;;;12.70;3.58;;;8.30;83.50;;;;;;5089339;28;20127;-51
2021/03/28 07:43:58;;;;;;;16.90;3.47;;;8.30;83.50;;;;;;5093067;28;20499;-53
2021/03/28 07:46:48;;;;;;;15.77;3.25;;;8.40;83.60;;;;;;5085614;28;20407;-48
2021/03/28 07:49:49;;;;;;;14.55;3.28;;;8.40;83.50;;;;;;5091845;28;20047;-48
2021/03/28 07:52:23;;;;;;;16.10;2.97;;;8.50;83.20;;;;;;5090618;28;20032;-49
2021/03/28 07:55:18;;;;;;;15.55;3.20;;;8.70;82.90;;;;;;5092957;28;20068;-49
2021/03/28 07:58:09;;;;;;;11.30;3.33;;;8.80;83.00;;;;;;5090445;28;20036;-50
2021/03/28 08:01:12;;;;;;;12.82;3.33;;;9.00;82.70;;;;;;5090301;28;20056;-51
2021/03/28 08:04:33;;;;;;;11.15;3.00;;;9.30;82.30;;;;;;5086885;28;20052;-50
2021/03/28 08:07:38;;;;;;;16.90;3.42;;;9.50;81.90;;;;;;5089959;28;20052;-50
2021/03/28 08:10:22;;;;;;;10.70;3.33;;;9.70;81.10;;;;;;5089781;28;20048;-51
2021/03/28 08:13:18;;;;;;;13.32;3.03;;;9.80;80.70;;;;;;5088548;28;20047;-52
2021/03/28 08:16:19;;;;;;;10.57;3.15;;;10.10;80.00;;;;;;5087887;28;20498;-54
2021/03/28 08:18:59;;;;;;;13.73;3.25;;;10.20;79.00;;;;;;5088455;28;20044;-51
2021/03/28 08:21:32;;;;;;;12.10;3.40;;;10.30;78.40;;;;;;5091622;28;20032;-52
2021/03/28 08:24:31;;;;;;;12.18;3.63;;;10.30;78.20;;;;;;5091563;28;20067;-53
2021/03/28 08:27:12;;;;;;;7.93;2.90;;;10.40;78.40;;;;;;5091432;28;20557;-54
2021/03/28 08:29:59;;;;;;;16.98;3.97;;;10.50;78.10;;;;;;5090358;28;20032;-49
2021/03/28 08:32:49;;;;;;;11.40;3.05;;;10.70;76.70;;;;;;5091106;28;20050;-51
2021/03/28 08:35:45;;;;;;;15.02;3.25;;;10.70;76.30;;;;;;5089782;28;20510;-53
2021/03/28 08:38:47;;;;;;;11.68;3.08;;;10.60;77.30;;;;;;5090644;28;20043;-53
2021/03/28 08:41:46;;;;;;;13.32;3.50;;;10.70;77.00;;;;;;5090477;28;20040;-52
2021/03/28 08:44:14;;;;;;;9.50;3.00;;;10.60;76.70;;;;;;5088318;28;20035;-51
2021/03/28 08:46:58;;;;;;;12.20;2.97;;;10.60;76.90;;;;;;5089111;28;20116;-53
2021/03/28 08:49:49;;;;;;;10.40;2.70;;;10.50;76.80;;;;;;5088834;28;20055;-50
2021/03/28 08:52:50;;;;;;;11.25;3.00;;;10.50;76.90;;;;;;5089036;28;20448;-50
2021/03/28 08:56:07;;;;;;;12.27;3.03;;;10.50;75.90;;;;;;5088513;28;20574;-51
2021/03/28 08:59:08;;;;;;;12.70;2.80;;;10.60;76.90;;;;;;5077038;28;20036;-51
2021/03/28 09:02:00;;;;;;;11.98;3.35;;;10.80;75.40;;;;;;5090063;28;20108;-52
2021/03/28 09:04:57;;;;;;;10.75;2.95;;;11.00;75.30;;;;;;5089231;28;20047;-50
2021/03/28 09:07:35;;;;;;;9.70;2.65;;;11.10;74.80;;;;;;5087799;28;20082;-51
2021/03/28 09:10:16;;;;;;;13.65;3.17;;;11.30;74.30;;;;;;5091019;28;20040;-51
2021/03/28 09:13:13;;;;;;;9.38;2.72;;;11.50;72.70;;;;;;5086535;28;20073;-51
2021/03/28 09:16:18;;;;;;;8.95;2.58;;;11.70;72.40;;;;;;5090979;28;20385;-53
2021/03/28 09:19:20;;;;;;;12.85;3.08;;;11.90;71.40;;;;;;5065495;28;20052;-50
2021/03/28 09:22:18;;;;;;;15.23;3.60;;;11.90;69.70;;;;;;5090674;28;20079;-53
2021/03/28 09:24:53;;;;;;;9.00;3.10;;;12.00;69.70;;;;;;5087474;28;20789;-52
2021/03/28 09:27:30;;;;;;;10.00;2.85;;;12.10;70.80;;;;;;5089003;28;20048;-51
2021/03/28 09:30:01;;;;;;;11.30;2.95;;;12.20;69.10;;;;;;5088334;28;20124;-53
2021/03/28 09:32:53;;;;;;;7.97;2.80;;;12.30;67.70;;;;;;5090283;28;20053;-53
2021/03/28 09:35:59;;;;;;;9.77;2.88;;;12.30;66.90;;;;;;5084039;28;20416;-50
2021/03/28 09:39:09;;;;;;;9.35;2.60;;;12.30;65.80;;;;;;5089295;28;20043;-53
2021/03/28 09:42:02;;;;;;;8.40;2.53;;;12.40;65.30;;;;;;5089414;28;20036;-50
2021/03/28 09:44:32;;;;;;;10.43;2.60;;;12.50;63.30;;;;;;5087207;28;20143;-51
2021/03/28 09:47:01;;;;;;;6.13;2.17;;;12.50;63.60;;;;;;5087160;28;20032;-51
2021/03/28 09:50:19;;;;;;;8.95;2.45;;;12.60;63.30;;;;;;5090548;28;20105;-53
2021/03/28 09:52:50;;;;;;;8.85;2.17;;;12.50;62.00;;;;;;5044446;28;20065;-51
2021/03/28 09:55:43;;;;;;;13.67;2.63;;;12.40;62.90;;;;;;5031736;28;20033;-51
2021/03/28 09:58:34;;;;;;;;;;;12.40;64.10;;;;;;5088609;28;20037;-51
2021/03/28 10:01:36;;;;;;;8.80;2.35;;;12.40;63.00;;;;;;5087318;28;19922;-51
2021/03/28 10:04:50;;;;;;;9.93;2.65;;;12.50;63.10;;;;;;5077367;28;20039;-51
2021/03/28 10:07:23;;;;;;;;;;;12.50;62.10;;;;;;5084294;28;20475;-54
2021/03/28 10:10:06;;;;;;;9.52;2.42;;;12.40;62.40;;;;;;5089484;28;19920;-54
2021/03/28 10:13:01;;;;;;;10.00;2.53;;;12.30;62.70;;;;;;5089866;28;20059;-51
2021/03/28 10:15:27;;;;;;;12.25;2.83;;;12.20;61.80;;;;;;5088491;28;21692;-52
2021/03/28 10:18:22;;;;;;;9.32;2.30;;;12.10;62.50;;;;;;5087061;28;20067;-53
2021/03/28 10:21:00;;;;;;;9.25;2.60;;;12.00;64.20;;;;;;5087718;28;20448;-51
2021/03/28 10:23:55;;;;;;;10.88;2.60;;;12.00;63.50;;;;;;5086072;28;20032;-53
2021/03/28 10:26:32;;;;;;;8.50;2.65;;;12.00;63.30;;;;;;5087606;28;20485;-51
2021/03/28 10:29:35;;;;;;;10.88;2.50;;;12.00;63.40;;;;;;5088193;28;20047;-51
2021/03/28 10:32:39;;;;;;;11.80;2.92;;;12.10;65.30;;;;;;5088863;28;20042;-52
2021/03/28 10:35:41;;;;;;;8.90;2.80;;;12.20;65.10;;;;;;5087298;28;20043;-53
2021/03/28 10:38:26;;;;;;;10.05;2.58;;;12.30;65.50;;;;;;5084732;28;20135;-53
2021/03/28 10:41:17;;;;;;;10.20;2.88;;;12.20;63.70;;;;;;5090470;28;20507;-53
2021/03/28 10:44:10;;;;;;;10.18;2.83;;;12.20;64.80;;;;;;5091805;28;20539;-54
2021/03/28 10:47:12;;;;;;;9.25;2.92;;;12.00;66.00;;;;;;5080251;28;20044;-54
2021/03/28 10:49:57;;;;;;;;;;;11.90;66.80;;;;;;5091150;28;20083;-50
2021/03/28 10:52:41;;;;;;;12.20;3.15;;;11.70;69.70;;;;;;5092911;28;19915;-52
2021/03/28 10:55:26;;;;;;;9.88;2.83;;;11.50;70.50;;;;;;5093553;28;20082;-50
2021/03/28 10:58:35;;;;;;;10.57;2.70;;;11.40;69.50;;;;;;5092539;28;20111;-52
2021/03/28 11:01:29;;;;;;;9.48;3.25;;;11.20;70.70;;;;;;5091960;28;20043;-53
2021/03/28 11:04:28;;;;;;;9.77;2.25;;;11.30;70.40;;;;;;5092902;28;20054;-52
2021/03/28 11:07:06;;;;;;;7.70;2.30;;;11.30;70.40;;;;;;5091010;28;20048;-53
2021/03/28 11:10:16;;;;;;;19.48;3.22;;;11.20;71.10;;;;;;5093185;28;20069;-53
2021/03/28 11:12:41;;;;;;;11.10;2.78;;;11.20;71.00;;;;;;5093037;28;20374;-52
2021/03/28 11:15:37;;;;;;;12.07;3.17;;;11.20;70.10;;;;;;5090497;28;20036;-54
2021/03/28 11:18:20;;;;;;;9.85;2.92;;;11.20;70.80;;;;;;5067152;28;20526;-53
2021/03/28 11:21:13;;;;;;;12.32;2.72;;;11.20;71.80;;;;;;5091905;28;20040;-55
2021/03/28 11:24:00;;;;;;;13.40;3.25;;;11.10;73.10;;;;;;5093003;28;20051;-54
2021/03/28 11:26:31;;;;;;;11.77;3.58;;;11.00;74.40;;;;;;5091879;28;20040;-54
2021/03/28 11:29:28;;;;;;;13.45;3.40;;;10.90;75.60;;;;;;5093666;28;20115;-52
2021/03/28 11:32:04;;;;;;;16.42;3.63;;;10.90;76.70;;;;;;5088701;28;20392;-51
2021/03/28 11:35:15;;;;;;;16.13;3.58;;;10.80;77.60;;;;;;5092861;28;20035;-54
2021/03/28 11:38:05;;;;;;;10.45;3.22;;;10.70;78.30;;;;;;5091103;28;20548;-53
2021/03/28 11:40:37;;;;;;;16.20;3.30;;;10.70;78.10;;;;;;5090193;28;20492;-55
2021/03/28 11:43:06;;;;;;;12.27;3.65;;;10.70;78.60;;;;;;5093677;28;20032;-53
2021/03/28 11:46:09;;;;;;;16.42;3.88;;;10.70;78.50;;;;;;5092184;28;20035;-54
2021/03/28 11:48:44;;;;;;;13.38;3.85;;;10.70;78.40;;;;;;5092847;28;20044;-55
2021/03/28 11:51:18;;;;;;;17.48;3.58;;;10.70;78.60;;;;;;5092575;28;20046;-51
2021/03/28 11:53:48;;;;;;;11.75;3.72;;;10.70;78.70;;;;;;5091916;28;20500;-55
2021/03/28 11:56:38;;;;;;;11.55;3.58;;;10.60;79.40;;;;;;5090604;28;20139;-55
2021/03/28 11:59:08;;;;;;;14.63;3.95;;;10.60;80.00;;;;;;5092958;28;20040;-52
2021/03/28 12:01:55;;;;;;;11.98;3.58;;;10.50;80.50;;;;;;5091784;28;20392;-55
2021/03/28 12:04:26;;;;;;;11.55;3.80;;;10.50;80.50;;;;;;5087906;28;20036;-54
2021/03/28 12:07:13;;;;;;;13.73;3.58;;;10.50;81.50;;;;;;5091127;28;20078;-51
2021/03/28 12:09:40;;;;;;;15.73;3.97;;;10.40;82.20;;;;;;5092386;28;20154;-53
2021/03/28 12:12:40;;;;;;;17.40;4.50;;;10.40;82.10;;;;;;5092251;28;20499;-52
2021/03/28 12:15:43;;;;;;;13.32;4.28;;;10.40;83.00;;;;;;5092346;28;20111;-55
2021/03/28 12:18:23;;;;;;;13.10;4.35;;;10.30;83.40;;;;;;5090670;28;20036;-54
2021/03/28 12:21:07;;;;;;;13.77;4.20;;;10.30;84.00;;;;;;5090002;28;20134;-54
2021/03/28 12:23:44;;;;;;;16.73;4.70;;;10.20;84.20;;;;;;5090997;28;20472;-54
2021/03/28 12:26:21;;;;;;;14.48;4.45;;;10.10;84.50;;;;;;5089788;28;20036;-55
2021/03/28 12:28:47;;;;;;;16.35;4.75;;;10.10;85.00;;;;;;5090929;28;20649;-52
2021/03/28 12:31:50;;;;;;;14.68;4.30;;;10.10;84.90;;;;;;5088710;28;20044;-52
2021/03/28 12:34:44;;;;;;;14.10;3.92;;;10.10;85.80;;;;;;5070333;28;20060;-53
2021/03/28 12:37:10;;;;;;;17.13;4.10;;;10.10;86.10;;;;;;5087447;28;20169;-54
2021/03/28 12:39:41;;;;;;;13.38;4.20;;;10.10;86.20;;;;;;5090144;28;20115;-54
2021/03/28 12:42:22;;;;;;;14.82;4.40;;;10.10;86.20;;;;;;5091062;28;20059;-55
2021/03/28 12:44:53;;;;;;;17.15;4.35;;;10.10;86.60;;;;;;5091184;28;20048;-53
2021/03/28 12:47:29;;;;;;;14.93;4.07;;;10.20;87.00;;;;;;5089123;28;20040;-54
2021/03/28 12:50:21;;;;;;;12.57;4.00;;;10.20;86.50;;;;;;5091032;28;20051;-52
2021/03/28 12:53:02;;;;;;;16.02;4.03;;;10.20;86.70;;;;;;5090003;28;20044;-53
2021/03/28 12:55:30;;;;;;;13.88;3.97;;;10.20;85.60;;;;;;5092345;28;20388;-51
2021/03/28 12:58:08;;;;;;;13.70;3.47;;;10.30;85.80;;;;;;5091147;28;20036;-53
2021/03/28 13:00:39;;;;;;;16.45;4.03;;;10.20;86.40;;;;;;5091518;28;20546;-52
2021/03/28 13:03:31;;;;;;;15.75;3.92;;;10.20;85.30;;;;;;5091255;28;20032;-54
2021/03/28 13:06:03;;;;;;;15.23;4.10;;;10.30;85.30;;;;;;5091009;28;20039;-54
2021/03/28 13:09:01;;;;;;;16.50;4.20;;;10.30;84.50;;;;;;5091707;28;20067;-55
2021/03/28 13:11:52;;;;;;;19.25;4.90;;;10.40;84.30;;;;;;5067276;28;20044;-52
2021/03/28 13:14:33;;;;;;;15.55;3.92;;;10.40;83.90;;;;;;5091432;28;20066;-53
2021/03/28 13:17:04;;;;;;;11.05;3.92;;;10.60;83.20;;;;;;5082672;28;20211;-53
2021/03/28 13:19:34;;;;;;;13.48;3.80;;;10.60;83.50;;;;;;5091457;28;20043;-54
2021/03/28 13:22:20;;;;;;;10.00;3.30;;;10.60;83.10;;;;;;5091387;28;20040;-53
2021/03/28 13:24:46;;;;;;;18.50;4.30;;;10.60;83.20;;;;;;5086428;28;20040;-54
2021/03/28 13:27:18;;;;;;;16.15;4.72;;;10.60;82.80;;;;;;5092508;28;20081;-53
2021/03/28 13:29:52;;;;;;;;;;;10.60;82.70;;;;;;5091493;28;20044;-55
2021/03/28 13:32:37;;;;;;;14.15;3.72;;;10.60;81.70;;;;;;5092073;28;19931;-53
2021/03/28 13:35:07;;;;;;;9.68;3.47;;;10.60;82.40;;;;;;5092014;28;20060;-54
2021/03/28 13:37:49;;;;;;;17.35;3.78;;;10.60;82.10;;;;;;5089027;28;20064;-53
2021/03/28 13:40:25;;;;;;;14.80;3.78;;;10.60;82.70;;;;;;5092349;28;20047;-52
2021/03/28 13:42:58;;;;;;;18.48;3.83;;;10.60;82.10;;;;;;5088451;28;20185;-53
2021/03/28 13:45:37;;;;;;;20.90;3.95;;;10.60;81.40;;;;;;5090264;28;20484;-51
2021/03/28 13:48:08;;;;;;;13.82;3.55;;;10.60;82.00;;;;;;5101251;28;20032;-53
2021/03/28 13:50:40;;;;;;;13.60;3.75;;;10.60;81.90;;;;;;5090801;28;20089;-53
2021/03/28 13:53:36;;;;;;;12.63;4.22;;;10.70;81.40;;;;;;5089385;28;20454;-52
2021/03/28 13:56:07;;;;;;;11.68;3.78;;;10.70;81.10;;;;;;5087510;28;20508;-54
2021/03/28 13:58:38;;;;;;;16.85;3.60;;;10.70;80.50;;;;;;5089200;28;20036;-53
2021/03/28 14:01:10;;;;;;;15.23;4.40;;;10.80;80.20;;;;;;5091037;28;20093;-54
2021/03/28 14:03:39;;;;;;;9.93;3.33;;;10.80;80.20;;;;;;5091503;28;20282;-54
2021/03/28 14:06:28;;;;;;;19.40;3.85;;;10.70;80.40;;;;;;5088016;28;20504;-53
2021/03/28 14:09:07;;;;;;;16.17;4.15;;;10.70;80.50;;;;;;5091423;28;20039;-53
2021/03/28 14:11:40;;;;;;;12.75;3.83;;;10.70;80.90;;;;;;5091007;28;20040;-53
2021/03/28 14:14:14;;;;;;;;;;;10.70;81.10;;;;;;5084788;28;20071;-54
2021/03/28 14:16:42;;;;;;;13.93;3.65;;;10.70;81.00;;;;;;5081440;28;19923;-54
2021/03/28 14:19:22;;;;;;;12.38;3.95;;;10.70;81.40;;;;;;5091134;28;20478;-51
2021/03/28 14:21:49;;;;;;;12.93;3.35;;;10.70;81.20;;;;;;5087720;28;20035;-54
2021/03/28 14:24:14;;;;;;;16.30;3.60;;;10.60;80.90;;;;;;5090341;28;20089;-55
2021/03/28 14:27:06;;;;;;;17.73;4.30;;;10.70;80.50;;;;;;5088609;28;20044;-54
2021/03/28 14:29:39;;;;;;;16.55;4.25;;;10.60;80.90;;;;;;5078973;28;20048;-51